sensor_id;sensor_type;location;lat;lon;timestamp;P1;durP1;ratioP1;P2;durP2;ratioP2
74808;SDS011;63338;39.544;2.596;2023-01-24T00:00:53;10.35;;;2.55;;
74808;SDS011;63338;39.544;2.596;2023-01-24T00:03:20;9.00;;;2.08;;
74808;SDS011;63338;39.544;2.596;2023-01-24T00:05:47;9.30;;;2.17;;
74808;SDS011;63338;39.544;2.596;2023-01-24T00:08:14;8.30;;;1.73;;
74808;SDS011;63338;39.544;2.596;2023-01-24T00:10:44;8.55;;;1.98;;
74808;SDS011;63338;39.544;2.596;2023-01-24T00:13:11;11.77;;;2.35;;
74808;SDS011;63338;39.544;2.596;2023-01-24T00:15:41;8.80;;;2.33;;
74808;SDS011;63338;39.544;2.596;2023-01-24T00:18:10;6.03;;;1.88;;
74808;SDS011;63338;39.544;2.596;2023-01-24T00:20:36;9.90;;;2.55;;
74808;SDS011;63338;39.544;2.596;2023-01-24T00:23:02;9.25;;;2.25;;
74808;SDS011;63338;39.544;2.596;2023-01-24T00:25:29;7.15;;;2.20;;
74808;SDS011;63338;39.544;2.596;2023-01-24T00:27:55;10.68;;;2.17;;
74808;SDS011;63338;39.544;2.596;2023-01-24T00:30:21;9.68;;;2.38;;
74808;SDS011;63338;39.544;2.596;2023-01-24T00:32:47;7.35;;;2.13;;
74808;SDS011;63338;39.544;2.596;2023-01-24T00:35:13;5.22;;;1.85;;
74808;SDS011;63338;39.544;2.596;2023-01-24T00:37:39;10.02;;;2.55;;
74808;SDS011;63338;39.544;2.596;2023-01-24T00:40:06;5.13;;;1.77;;
74808;SDS011;63338;39.544;2.596;2023-01-24T00:42:33;7.35;;;2.28;;
74808;SDS011;63338;39.544;2.596;2023-01-24T00:44:59;6.72;;;1.90;;
74808;SDS011;63338;39.544;2.596;2023-01-24T00:47:25;8.25;;;2.22;;
74808;SDS011;63338;39.544;2.596;2023-01-24T00:49:51;8.45;;;2.17;;
74808;SDS011;63338;39.544;2.596;2023-01-24T00:52:17;6.72;;;2.28;;
74808;SDS011;63338;39.544;2.596;2023-01-24T00:54:43;7.72;;;2.20;;
74808;SDS011;63338;39.544;2.596;2023-01-24T00:57:09;8.00;;;2.15;;
74808;SDS011;63338;39.544;2.596;2023-01-24T00:59:35;7.50;;;2.03;;
74808;SDS011;63338;39.544;2.596;2023-01-24T01:02:03;7.82;;;2.20;;
74808;SDS011;63338;39.544;2.596;2023-01-24T01:04:29;12.82;;;2.47;;
74808;SDS011;63338;39.544;2.596;2023-01-24T01:06:55;14.68;;;2.22;;
74808;SDS011;63338;39.544;2.596;2023-01-24T01:09:21;9.75;;;2.60;;
74808;SDS011;63338;39.544;2.596;2023-01-24T01:11:47;9.25;;;2.80;;
74808;SDS011;63338;39.544;2.596;2023-01-24T01:14:13;5.68;;;2.08;;
74808;SDS011;63338;39.544;2.596;2023-01-24T01:16:39;7.38;;;2.83;;
74808;SDS011;63338;39.544;2.596;2023-01-24T01:19:05;9.73;;;2.33;;
74808;SDS011;63338;39.544;2.596;2023-01-24T01:21:31;6.10;;;2.35;;
74808;SDS011;63338;39.544;2.596;2023-01-24T01:23:59;6.55;;;2.00;;
74808;SDS011;63338;39.544;2.596;2023-01-24T01:26:25;10.18;;;2.20;;
74808;SDS011;63338;39.544;2.596;2023-01-24T01:28:51;9.75;;;2.50;;
74808;SDS011;63338;39.544;2.596;2023-01-24T01:31:17;10.02;;;2.38;;
74808;SDS011;63338;39.544;2.596;2023-01-24T01:33:43;7.30;;;2.17;;
74808;SDS011;63338;39.544;2.596;2023-01-24T01:36:10;8.55;;;2.22;;
74808;SDS011;63338;39.544;2.596;2023-01-24T01:38:36;11.10;;;3.50;;
74808;SDS011;63338;39.544;2.596;2023-01-24T01:41:03;9.35;;;2.55;;
74808;SDS011;63338;39.544;2.596;2023-01-24T01:43:30;8.80;;;2.83;;
74808;SDS011;63338;39.544;2.596;2023-01-24T01:46:07;8.00;;;2.25;;
74808;SDS011;63338;39.544;2.596;2023-01-24T01:48:47;9.20;;;2.30;;
74808;SDS011;63338;39.544;2.596;2023-01-24T01:51:31;10.02;;;2.58;;
74808;SDS011;63338;39.544;2.596;2023-01-24T01:54:10;8.93;;;1.92;;
74808;SDS011;63338;39.544;2.596;2023-01-24T01:56:41;6.20;;;1.80;;
74808;SDS011;63338;39.544;2.596;2023-01-24T01:59:16;7.53;;;2.20;;
74808;SDS011;63338;39.544;2.596;2023-01-24T02:01:45;8.93;;;2.20;;
74808;SDS011;63338;39.544;2.596;2023-01-24T02:04:15;7.90;;;2.20;;
74808;SDS011;63338;39.544;2.596;2023-01-24T02:09:22;9.88;;;2.58;;
74808;SDS011;63338;39.544;2.596;2023-01-24T02:11:51;9.07;;;2.20;;
74808;SDS011;63338;39.544;2.596;2023-01-24T02:14:20;7.65;;;2.15;;
74808;SDS011;63338;39.544;2.596;2023-01-24T02:17:07;11.88;;;2.40;;
74808;SDS011;63338;39.544;2.596;2023-01-24T02:25:26;10.00;;;2.42;;
74808;SDS011;63338;39.544;2.596;2023-01-24T02:27:58;9.95;;;2.25;;
74808;SDS011;63338;39.544;2.596;2023-01-24T02:30:26;5.57;;;1.95;;
74808;SDS011;63338;39.544;2.596;2023-01-24T02:32:52;11.32;;;2.97;;
74808;SDS011;63338;39.544;2.596;2023-01-24T02:35:24;12.00;;;2.55;;
74808;SDS011;63338;39.544;2.596;2023-01-24T02:37:56;9.75;;;2.38;;
74808;SDS011;63338;39.544;2.596;2023-01-24T02:40:26;9.07;;;2.08;;
74808;SDS011;63338;39.544;2.596;2023-01-24T02:42:55;8.70;;;2.05;;
74808;SDS011;63338;39.544;2.596;2023-01-24T02:45:25;8.02;;;2.47;;
74808;SDS011;63338;39.544;2.596;2023-01-24T02:47:56;7.57;;;2.35;;
74808;SDS011;63338;39.544;2.596;2023-01-24T02:50:24;4.18;;;1.70;;
74808;SDS011;63338;39.544;2.596;2023-01-24T02:52:52;9.75;;;2.55;;
74808;SDS011;63338;39.544;2.596;2023-01-24T02:55:38;6.15;;;2.00;;
74808;SDS011;63338;39.544;2.596;2023-01-24T02:58:24;7.55;;;2.13;;
74808;SDS011;63338;39.544;2.596;2023-01-24T03:00:51;12.43;;;2.40;;
74808;SDS011;63338;39.544;2.596;2023-01-24T03:03:18;6.88;;;1.88;;
74808;SDS011;63338;39.544;2.596;2023-01-24T03:05:44;7.15;;;2.35;;
74808;SDS011;63338;39.544;2.596;2023-01-24T03:08:23;6.35;;;2.40;;
74808;SDS011;63338;39.544;2.596;2023-01-24T03:10:50;6.10;;;2.17;;
74808;SDS011;63338;39.544;2.596;2023-01-24T03:13:16;9.10;;;2.45;;
74808;SDS011;63338;39.544;2.596;2023-01-24T03:16:02;5.43;;;2.05;;
74808;SDS011;63338;39.544;2.596;2023-01-24T03:18:46;11.63;;;2.70;;
74808;SDS011;63338;39.544;2.596;2023-01-24T03:21:31;6.60;;;2.50;;
74808;SDS011;63338;39.544;2.596;2023-01-24T03:24:16;5.22;;;1.92;;
74808;SDS011;63338;39.544;2.596;2023-01-24T03:27:01;7.30;;;2.30;;
74808;SDS011;63338;39.544;2.596;2023-01-24T03:29:45;7.22;;;2.20;;
74808;SDS011;63338;39.544;2.596;2023-01-24T03:32:30;9.45;;;2.20;;
74808;SDS011;63338;39.544;2.596;2023-01-24T03:35:15;6.35;;;2.53;;
74808;SDS011;63338;39.544;2.596;2023-01-24T03:37:41;9.00;;;2.25;;
74808;SDS011;63338;39.544;2.596;2023-01-24T03:40:26;9.38;;;2.05;;
74808;SDS011;63338;39.544;2.596;2023-01-24T03:42:52;6.75;;;2.30;;
74808;SDS011;63338;39.544;2.596;2023-01-24T03:45:19;7.50;;;2.13;;
74808;SDS011;63338;39.544;2.596;2023-01-24T03:47:50;7.28;;;2.95;;
74808;SDS011;63338;39.544;2.596;2023-01-24T03:50:24;8.27;;;2.20;;
74808;SDS011;63338;39.544;2.596;2023-01-24T03:53:14;7.78;;;2.28;;
74808;SDS011;63338;39.544;2.596;2023-01-24T03:55:41;6.82;;;2.08;;
74808;SDS011;63338;39.544;2.596;2023-01-24T03:58:07;7.30;;;2.25;;
74808;SDS011;63338;39.544;2.596;2023-01-24T04:00:34;9.32;;;2.60;;
74808;SDS011;63338;39.544;2.596;2023-01-24T04:03:02;7.00;;;2.05;;
74808;SDS011;63338;39.544;2.596;2023-01-24T04:05:28;10.43;;;2.50;;
74808;SDS011;63338;39.544;2.596;2023-01-24T04:07:57;9.52;;;2.40;;
74808;SDS011;63338;39.544;2.596;2023-01-24T04:10:23;6.78;;;2.80;;
74808;SDS011;63338;39.544;2.596;2023-01-24T04:12:49;12.73;;;2.63;;
74808;SDS011;63338;39.544;2.596;2023-01-24T04:15:16;8.00;;;2.15;;
74808;SDS011;63338;39.544;2.596;2023-01-24T04:17:44;8.18;;;2.38;;
74808;SDS011;63338;39.544;2.596;2023-01-24T04:20:11;11.55;;;3.95;;
74808;SDS011;63338;39.544;2.596;2023-01-24T04:22:38;4.93;;;1.98;;
74808;SDS011;63338;39.544;2.596;2023-01-24T04:25:04;13.52;;;2.50;;
74808;SDS011;63338;39.544;2.596;2023-01-24T04:27:31;8.15;;;2.25;;
74808;SDS011;63338;39.544;2.596;2023-01-24T04:29:57;6.88;;;2.53;;
74808;SDS011;63338;39.544;2.596;2023-01-24T04:32:23;8.20;;;2.88;;
74808;SDS011;63338;39.544;2.596;2023-01-24T04:34:49;9.23;;;2.10;;
74808;SDS011;63338;39.544;2.596;2023-01-24T04:37:15;7.38;;;2.08;;
74808;SDS011;63338;39.544;2.596;2023-01-24T04:39:45;7.22;;;2.88;;
74808;SDS011;63338;39.544;2.596;2023-01-24T04:42:11;10.38;;;2.45;;
74808;SDS011;63338;39.544;2.596;2023-01-24T04:44:37;8.32;;;2.17;;
74808;SDS011;63338;39.544;2.596;2023-01-24T04:47:04;8.40;;;2.75;;
74808;SDS011;63338;39.544;2.596;2023-01-24T04:49:31;10.25;;;2.65;;
74808;SDS011;63338;39.544;2.596;2023-01-24T04:51:57;10.20;;;2.85;;
74808;SDS011;63338;39.544;2.596;2023-01-24T04:54:23;7.88;;;2.50;;
74808;SDS011;63338;39.544;2.596;2023-01-24T04:56:50;6.68;;;2.38;;
74808;SDS011;63338;39.544;2.596;2023-01-24T04:59:16;6.70;;;2.53;;
74808;SDS011;63338;39.544;2.596;2023-01-24T05:01:42;8.73;;;2.67;;
74808;SDS011;63338;39.544;2.596;2023-01-24T05:04:08;15.88;;;2.58;;
74808;SDS011;63338;39.544;2.596;2023-01-24T05:06:34;6.57;;;2.47;;
74808;SDS011;63338;39.544;2.596;2023-01-24T05:09:01;6.57;;;2.22;;
74808;SDS011;63338;39.544;2.596;2023-01-24T05:11:27;9.55;;;2.40;;
74808;SDS011;63338;39.544;2.596;2023-01-24T05:13:57;9.20;;;2.72;;
74808;SDS011;63338;39.544;2.596;2023-01-24T05:16:25;7.45;;;2.45;;
74808;SDS011;63338;39.544;2.596;2023-01-24T05:18:51;8.43;;;2.67;;
74808;SDS011;63338;39.544;2.596;2023-01-24T05:21:19;10.32;;;2.97;;
74808;SDS011;63338;39.544;2.596;2023-01-24T05:23:49;9.43;;;2.33;;
74808;SDS011;63338;39.544;2.596;2023-01-24T05:26:17;8.50;;;2.80;;
74808;SDS011;63338;39.544;2.596;2023-01-24T05:28:44;9.73;;;2.22;;
74808;SDS011;63338;39.544;2.596;2023-01-24T05:31:10;4.78;;;2.30;;
74808;SDS011;63338;39.544;2.596;2023-01-24T05:33:36;10.32;;;3.10;;
74808;SDS011;63338;39.544;2.596;2023-01-24T05:36:06;11.15;;;3.33;;
74808;SDS011;63338;39.544;2.596;2023-01-24T05:38:53;7.38;;;2.38;;
74808;SDS011;63338;39.544;2.596;2023-01-24T05:41:19;6.25;;;2.40;;
74808;SDS011;63338;39.544;2.596;2023-01-24T05:43:46;6.75;;;2.50;;
74808;SDS011;63338;39.544;2.596;2023-01-24T05:46:16;6.68;;;2.10;;
74808;SDS011;63338;39.544;2.596;2023-01-24T05:48:44;6.72;;;2.40;;
74808;SDS011;63338;39.544;2.596;2023-01-24T05:51:12;8.57;;;2.67;;
74808;SDS011;63338;39.544;2.596;2023-01-24T05:53:40;6.20;;;2.15;;
74808;SDS011;63338;39.544;2.596;2023-01-24T05:56:09;7.43;;;2.50;;
74808;SDS011;63338;39.544;2.596;2023-01-24T05:58:38;6.95;;;2.30;;
74808;SDS011;63338;39.544;2.596;2023-01-24T06:01:06;6.70;;;3.00;;
74808;SDS011;63338;39.544;2.596;2023-01-24T06:03:36;8.20;;;2.58;;
74808;SDS011;63338;39.544;2.596;2023-01-24T06:06:04;8.88;;;2.75;;
74808;SDS011;63338;39.544;2.596;2023-01-24T06:08:33;7.93;;;2.50;;
74808;SDS011;63338;39.544;2.596;2023-01-24T06:11:07;9.95;;;2.53;;
74808;SDS011;63338;39.544;2.596;2023-01-24T06:13:38;6.53;;;2.30;;
74808;SDS011;63338;39.544;2.596;2023-01-24T06:16:05;8.82;;;2.25;;
74808;SDS011;63338;39.544;2.596;2023-01-24T06:18:34;8.35;;;2.28;;
74808;SDS011;63338;39.544;2.596;2023-01-24T06:21:04;6.22;;;2.38;;
74808;SDS011;63338;39.544;2.596;2023-01-24T06:23:32;5.78;;;2.20;;
74808;SDS011;63338;39.544;2.596;2023-01-24T06:25:58;6.85;;;3.05;;
74808;SDS011;63338;39.544;2.596;2023-01-24T06:28:24;7.72;;;2.92;;
74808;SDS011;63338;39.544;2.596;2023-01-24T06:30:54;7.05;;;2.60;;
74808;SDS011;63338;39.544;2.596;2023-01-24T06:33:48;8.20;;;2.88;;
74808;SDS011;63338;39.544;2.596;2023-01-24T06:39:20;5.85;;;2.20;;
74808;SDS011;63338;39.544;2.596;2023-01-24T06:41:47;8.20;;;2.45;;
74808;SDS011;63338;39.544;2.596;2023-01-24T06:44:14;7.53;;;2.50;;
74808;SDS011;63338;39.544;2.596;2023-01-24T06:46:43;8.20;;;2.92;;
74808;SDS011;63338;39.544;2.596;2023-01-24T06:49:10;14.73;;;2.58;;
74808;SDS011;63338;39.544;2.596;2023-01-24T06:51:36;8.45;;;2.95;;
74808;SDS011;63338;39.544;2.596;2023-01-24T06:54:11;9.07;;;2.67;;
74808;SDS011;63338;39.544;2.596;2023-01-24T06:56:40;7.45;;;3.13;;
74808;SDS011;63338;39.544;2.596;2023-01-24T06:59:06;11.88;;;2.83;;
74808;SDS011;63338;39.544;2.596;2023-01-24T07:01:32;8.48;;;3.03;;
74808;SDS011;63338;39.544;2.596;2023-01-24T07:04:01;6.93;;;2.50;;
74808;SDS011;63338;39.544;2.596;2023-01-24T07:06:27;7.80;;;2.70;;
74808;SDS011;63338;39.544;2.596;2023-01-24T07:08:53;8.00;;;2.70;;
74808;SDS011;63338;39.544;2.596;2023-01-24T07:11:19;10.63;;;2.55;;
74808;SDS011;63338;39.544;2.596;2023-01-24T07:13:48;7.95;;;2.72;;
74808;SDS011;63338;39.544;2.596;2023-01-24T07:16:14;7.05;;;3.60;;
74808;SDS011;63338;39.544;2.596;2023-01-24T07:18:40;9.45;;;3.35;;
74808;SDS011;63338;39.544;2.596;2023-01-24T07:21:07;10.15;;;2.90;;
74808;SDS011;63338;39.544;2.596;2023-01-24T07:23:33;7.57;;;2.75;;
74808;SDS011;63338;39.544;2.596;2023-01-24T07:26:03;12.02;;;2.90;;
74808;SDS011;63338;39.544;2.596;2023-01-24T07:28:30;10.15;;;2.78;;
74808;SDS011;63338;39.544;2.596;2023-01-24T07:30:56;9.07;;;2.53;;
74808;SDS011;63338;39.544;2.596;2023-01-24T07:33:22;10.25;;;2.53;;
74808;SDS011;63338;39.544;2.596;2023-01-24T07:35:48;10.15;;;2.83;;
74808;SDS011;63338;39.544;2.596;2023-01-24T07:38:14;8.68;;;2.70;;
74808;SDS011;63338;39.544;2.596;2023-01-24T07:40:40;11.25;;;2.55;;
74808;SDS011;63338;39.544;2.596;2023-01-24T07:43:07;11.45;;;3.38;;
74808;SDS011;63338;39.544;2.596;2023-01-24T07:45:36;6.10;;;2.95;;
74808;SDS011;63338;39.544;2.596;2023-01-24T07:48:06;7.72;;;2.58;;
74808;SDS011;63338;39.544;2.596;2023-01-24T07:50:35;9.30;;;2.72;;
74808;SDS011;63338;39.544;2.596;2023-01-24T07:53:02;8.30;;;2.60;;
74808;SDS011;63338;39.544;2.596;2023-01-24T07:55:28;6.55;;;3.35;;
74808;SDS011;63338;39.544;2.596;2023-01-24T07:58:01;9.13;;;2.60;;
74808;SDS011;63338;39.544;2.596;2023-01-24T08:00:28;9.60;;;2.90;;
74808;SDS011;63338;39.544;2.596;2023-01-24T08:02:54;10.32;;;2.92;;
74808;SDS011;63338;39.544;2.596;2023-01-24T08:05:21;7.45;;;2.75;;
74808;SDS011;63338;39.544;2.596;2023-01-24T08:07:47;13.43;;;3.45;;
74808;SDS011;63338;39.544;2.596;2023-01-24T08:10:13;8.07;;;2.53;;
74808;SDS011;63338;39.544;2.596;2023-01-24T08:12:42;9.10;;;2.45;;
74808;SDS011;63338;39.544;2.596;2023-01-24T08:15:11;7.32;;;2.67;;
74808;SDS011;63338;39.544;2.596;2023-01-24T08:17:37;6.50;;;2.50;;
74808;SDS011;63338;39.544;2.596;2023-01-24T08:20:04;7.15;;;2.20;;
74808;SDS011;63338;39.544;2.596;2023-01-24T08:22:34;7.15;;;2.70;;
74808;SDS011;63338;39.544;2.596;2023-01-24T08:25:02;5.78;;;2.38;;
74808;SDS011;63338;39.544;2.596;2023-01-24T08:27:29;8.70;;;2.42;;
74808;SDS011;63338;39.544;2.596;2023-01-24T08:29:56;8.43;;;2.60;;
74808;SDS011;63338;39.544;2.596;2023-01-24T08:32:25;6.85;;;2.33;;
74808;SDS011;63338;39.544;2.596;2023-01-24T08:34:54;7.43;;;2.92;;
74808;SDS011;63338;39.544;2.596;2023-01-24T08:37:41;8.77;;;2.40;;
74808;SDS011;63338;39.544;2.596;2023-01-24T08:40:08;13.75;;;3.20;;
74808;SDS011;63338;39.544;2.596;2023-01-24T08:42:38;18.40;;;6.57;;
74808;SDS011;63338;39.544;2.596;2023-01-24T08:45:10;31.90;;;12.32;;
74808;SDS011;63338;39.544;2.596;2023-01-24T08:47:39;18.83;;;7.88;;
74808;SDS011;63338;39.544;2.596;2023-01-24T08:50:05;8.88;;;3.47;;
74808;SDS011;63338;39.544;2.596;2023-01-24T08:52:38;11.07;;;3.05;;
74808;SDS011;63338;39.544;2.596;2023-01-24T08:55:06;11.57;;;3.63;;
74808;SDS011;63338;39.544;2.596;2023-01-24T08:57:33;10.20;;;3.30;;
74808;SDS011;63338;39.544;2.596;2023-01-24T08:59:59;9.10;;;2.85;;
74808;SDS011;63338;39.544;2.596;2023-01-24T09:02:25;6.65;;;2.60;;
74808;SDS011;63338;39.544;2.596;2023-01-24T09:04:54;9.30;;;2.58;;
74808;SDS011;63338;39.544;2.596;2023-01-24T09:07:20;9.63;;;3.42;;
74808;SDS011;63338;39.544;2.596;2023-01-24T09:09:47;11.70;;;3.30;;
74808;SDS011;63338;39.544;2.596;2023-01-24T09:12:13;9.48;;;2.78;;
74808;SDS011;63338;39.544;2.596;2023-01-24T09:14:39;8.50;;;2.92;;
74808;SDS011;63338;39.544;2.596;2023-01-24T09:17:07;6.28;;;2.85;;
74808;SDS011;63338;39.544;2.596;2023-01-24T09:19:34;9.05;;;3.08;;
74808;SDS011;63338;39.544;2.596;2023-01-24T09:22:05;9.10;;;2.50;;
74808;SDS011;63338;39.544;2.596;2023-01-24T09:24:31;8.65;;;2.45;;
74808;SDS011;63338;39.544;2.596;2023-01-24T09:27:00;5.40;;;2.53;;
74808;SDS011;63338;39.544;2.596;2023-01-24T09:29:27;5.53;;;2.22;;
74808;SDS011;63338;39.544;2.596;2023-01-24T09:31:53;6.90;;;2.38;;
74808;SDS011;63338;39.544;2.596;2023-01-24T09:34:20;6.32;;;1.90;;
74808;SDS011;63338;39.544;2.596;2023-01-24T09:36:47;5.22;;;1.83;;
74808;SDS011;63338;39.544;2.596;2023-01-24T09:39:14;8.30;;;1.60;;
74808;SDS011;63338;39.544;2.596;2023-01-24T09:41:57;5.70;;;1.98;;
74808;SDS011;63338;39.544;2.596;2023-01-24T09:47:17;6.20;;;1.73;;
74808;SDS011;63338;39.544;2.596;2023-01-24T09:50:15;6.15;;;1.77;;
74808;SDS011;63338;39.544;2.596;2023-01-24T09:52:54;6.97;;;1.80;;
74808;SDS011;63338;39.544;2.596;2023-01-24T09:55:27;6.22;;;1.70;;
74808;SDS011;63338;39.544;2.596;2023-01-24T10:00:44;7.82;;;1.50;;
74808;SDS011;63338;39.544;2.596;2023-01-24T10:03:17;7.45;;;1.55;;
74808;SDS011;63338;39.544;2.596;2023-01-24T10:05:49;3.95;;;1.80;;
74808;SDS011;63338;39.544;2.596;2023-01-24T10:11:30;5.85;;;1.73;;
74808;SDS011;63338;39.544;2.596;2023-01-24T10:16:56;4.22;;;1.40;;
74808;SDS011;63338;39.544;2.596;2023-01-24T10:25:19;7.45;;;1.55;;
74808;SDS011;63338;39.544;2.596;2023-01-24T10:27:47;6.20;;;1.83;;
74808;SDS011;63338;39.544;2.596;2023-01-24T10:30:21;6.72;;;2.03;;
74808;SDS011;63338;39.544;2.596;2023-01-24T10:33:01;5.97;;;1.88;;
74808;SDS011;63338;39.544;2.596;2023-01-24T10:35:32;6.15;;;1.70;;
74808;SDS011;63338;39.544;2.596;2023-01-24T10:38:10;6.78;;;2.30;;
74808;SDS011;63338;39.544;2.596;2023-01-24T10:40:49;4.35;;;1.45;;
74808;SDS011;63338;39.544;2.596;2023-01-24T10:43:15;4.00;;;1.70;;
74808;SDS011;63338;39.544;2.596;2023-01-24T10:45:45;7.32;;;1.52;;
74808;SDS011;63338;39.544;2.596;2023-01-24T10:50:49;3.28;;;1.20;;
74808;SDS011;63338;39.544;2.596;2023-01-24T10:53:22;5.50;;;1.27;;
74808;SDS011;63338;39.544;2.596;2023-01-24T10:56:00;5.78;;;1.50;;
74808;SDS011;63338;39.544;2.596;2023-01-24T11:01:36;4.43;;;1.48;;
74808;SDS011;63338;39.544;2.596;2023-01-24T11:04:20;3.60;;;1.20;;
74808;SDS011;63338;39.544;2.596;2023-01-24T11:06:51;3.72;;;1.10;;
74808;SDS011;63338;39.544;2.596;2023-01-24T11:09:19;5.35;;;1.35;;
74808;SDS011;63338;39.544;2.596;2023-01-24T11:11:52;6.97;;;1.20;;
74808;SDS011;63338;39.544;2.596;2023-01-24T11:14:24;4.10;;;1.20;;
74808;SDS011;63338;39.544;2.596;2023-01-24T11:16:54;4.43;;;1.10;;
74808;SDS011;63338;39.544;2.596;2023-01-24T11:22:17;5.43;;;1.15;;
74808;SDS011;63338;39.544;2.596;2023-01-24T11:24:46;6.30;;;1.27;;
74808;SDS011;63338;39.544;2.596;2023-01-24T11:27:14;3.67;;;1.05;;
74808;SDS011;63338;39.544;2.596;2023-01-24T11:29:42;4.78;;;1.10;;
74808;SDS011;63338;39.544;2.596;2023-01-24T11:35:23;3.80;;;1.80;;
74808;SDS011;63338;39.544;2.596;2023-01-24T11:48:55;6.18;;;1.55;;
74808;SDS011;63338;39.544;2.596;2023-01-24T11:56:33;5.47;;;1.40;;
74808;SDS011;63338;39.544;2.596;2023-01-24T12:13:18;5.22;;;1.42;;
74808;SDS011;63338;39.544;2.596;2023-01-24T12:18:27;3.35;;;1.00;;
74808;SDS011;63338;39.544;2.596;2023-01-24T12:21:12;6.40;;;1.20;;
74808;SDS011;63338;39.544;2.596;2023-01-24T12:23:41;3.58;;;1.00;;
74808;SDS011;63338;39.544;2.596;2023-01-24T12:26:25;2.95;;;1.05;;
74808;SDS011;63338;39.544;2.596;2023-01-24T12:31:27;5.17;;;1.27;;
74808;SDS011;63338;39.544;2.596;2023-01-24T12:36:58;3.65;;;1.40;;
74808;SDS011;63338;39.544;2.596;2023-01-24T12:39:44;6.30;;;1.50;;
74808;SDS011;63338;39.544;2.596;2023-01-24T12:42:18;5.70;;;1.50;;
74808;SDS011;63338;39.544;2.596;2023-01-24T12:44:56;5.15;;;1.80;;
74808;SDS011;63338;39.544;2.596;2023-01-24T12:56:02;5.47;;;1.70;;
74808;SDS011;63338;39.544;2.596;2023-01-24T12:58:37;6.10;;;1.90;;
74808;SDS011;63338;39.544;2.596;2023-01-24T13:04:25;5.43;;;1.50;;
74808;SDS011;63338;39.544;2.596;2023-01-24T13:06:53;6.47;;;2.33;;
74808;SDS011;63338;39.544;2.596;2023-01-24T13:11:51;5.88;;;1.33;;
74808;SDS011;63338;39.544;2.596;2023-01-24T13:14:21;6.25;;;1.67;;
74808;SDS011;63338;39.544;2.596;2023-01-24T13:31:29;4.03;;;1.40;;
74808;SDS011;63338;39.544;2.596;2023-01-24T13:34:05;4.68;;;1.73;;
74808;SDS011;63338;39.544;2.596;2023-01-24T13:36:39;4.72;;;1.48;;
74808;SDS011;63338;39.544;2.596;2023-01-24T13:39:05;6.65;;;1.73;;
74808;SDS011;63338;39.544;2.596;2023-01-24T13:41:48;5.53;;;1.40;;
74808;SDS011;63338;39.544;2.596;2023-01-24T13:44:27;8.77;;;1.80;;
74808;SDS011;63338;39.544;2.596;2023-01-24T13:46:57;7.68;;;1.30;;
74808;SDS011;63338;39.544;2.596;2023-01-24T13:51:53;13.45;;;1.42;;
74808;SDS011;63338;39.544;2.596;2023-01-24T13:54:42;4.28;;;1.30;;
74808;SDS011;63338;39.544;2.596;2023-01-24T14:10:37;3.60;;;1.13;;
74808;SDS011;63338;39.544;2.596;2023-01-24T14:13:05;7.80;;;1.65;;
74808;SDS011;63338;39.544;2.596;2023-01-24T14:16:10;4.57;;;1.23;;
74808;SDS011;63338;39.544;2.596;2023-01-24T14:27:18;3.58;;;0.90;;
74808;SDS011;63338;39.544;2.596;2023-01-24T14:36:00;1.45;;;0.57;;
74808;SDS011;63338;39.544;2.596;2023-01-24T14:38:38;1.98;;;0.57;;
74808;SDS011;63338;39.544;2.596;2023-01-24T14:41:20;2.05;;;0.77;;
74808;SDS011;63338;39.544;2.596;2023-01-24T14:43:48;5.10;;;1.23;;
74808;SDS011;63338;39.544;2.596;2023-01-24T14:46:22;4.15;;;1.00;;
74808;SDS011;63338;39.544;2.596;2023-01-24T14:48:49;4.03;;;1.00;;
74808;SDS011;63338;39.544;2.596;2023-01-24T14:51:23;4.32;;;1.00;;
74808;SDS011;63338;39.544;2.596;2023-01-24T14:53:50;1.83;;;0.90;;
74808;SDS011;63338;39.544;2.596;2023-01-24T14:56:18;4.38;;;1.25;;
74808;SDS011;63338;39.544;2.596;2023-01-24T14:58:45;4.50;;;1.80;;
74808;SDS011;63338;39.544;2.596;2023-01-24T15:01:25;3.38;;;1.42;;
74808;SDS011;63338;39.544;2.596;2023-01-24T15:03:56;4.22;;;1.67;;
74808;SDS011;63338;39.544;2.596;2023-01-24T15:06:26;5.50;;;1.45;;
74808;SDS011;63338;39.544;2.596;2023-01-24T15:08:55;4.90;;;1.73;;
74808;SDS011;63338;39.544;2.596;2023-01-24T15:11:28;5.05;;;1.50;;
74808;SDS011;63338;39.544;2.596;2023-01-24T15:14:03;3.58;;;1.08;;
74808;SDS011;63338;39.544;2.596;2023-01-24T15:16:33;6.38;;;1.30;;
74808;SDS011;63338;39.544;2.596;2023-01-24T15:19:14;3.20;;;1.30;;
74808;SDS011;63338;39.544;2.596;2023-01-24T15:21:47;4.07;;;1.70;;
74808;SDS011;63338;39.544;2.596;2023-01-24T15:24:24;13.27;;;2.78;;
74808;SDS011;63338;39.544;2.596;2023-01-24T15:26:53;6.32;;;1.80;;
74808;SDS011;63338;39.544;2.596;2023-01-24T15:32:18;6.82;;;1.77;;
74808;SDS011;63338;39.544;2.596;2023-01-24T15:35:13;6.50;;;1.98;;
74808;SDS011;63338;39.544;2.596;2023-01-24T15:37:39;6.97;;;2.38;;
74808;SDS011;63338;39.544;2.596;2023-01-24T15:40:12;9.60;;;2.75;;
74808;SDS011;63338;39.544;2.596;2023-01-24T15:42:45;6.32;;;1.90;;
74808;SDS011;63338;39.544;2.596;2023-01-24T15:45:32;4.55;;;2.10;;
74808;SDS011;63338;39.544;2.596;2023-01-24T15:48:14;4.68;;;2.03;;
74808;SDS011;63338;39.544;2.596;2023-01-24T15:50:51;5.97;;;1.70;;
74808;SDS011;63338;39.544;2.596;2023-01-24T15:53:42;5.55;;;2.10;;
74808;SDS011;63338;39.544;2.596;2023-01-24T15:56:21;7.15;;;2.05;;
74808;SDS011;63338;39.544;2.596;2023-01-24T15:58:51;5.63;;;2.10;;
74808;SDS011;63338;39.544;2.596;2023-01-24T16:01:21;5.32;;;1.75;;
74808;SDS011;63338;39.544;2.596;2023-01-24T16:03:55;6.43;;;2.03;;
74808;SDS011;63338;39.544;2.596;2023-01-24T16:06:23;7.68;;;2.15;;
74808;SDS011;63338;39.544;2.596;2023-01-24T16:08:49;6.35;;;2.38;;
74808;SDS011;63338;39.544;2.596;2023-01-24T16:11:15;9.43;;;2.53;;
74808;SDS011;63338;39.544;2.596;2023-01-24T16:13:43;6.70;;;2.78;;
74808;SDS011;63338;39.544;2.596;2023-01-24T16:16:13;6.47;;;3.10;;
74808;SDS011;63338;39.544;2.596;2023-01-24T16:18:40;8.10;;;2.45;;
74808;SDS011;63338;39.544;2.596;2023-01-24T16:21:07;10.02;;;2.65;;
74808;SDS011;63338;39.544;2.596;2023-01-24T16:23:35;11.70;;;2.80;;
74808;SDS011;63338;39.544;2.596;2023-01-24T16:26:01;8.88;;;2.20;;
74808;SDS011;63338;39.544;2.596;2023-01-24T16:28:27;7.80;;;1.83;;
74808;SDS011;63338;39.544;2.596;2023-01-24T16:30:54;4.20;;;1.70;;
74808;SDS011;63338;39.544;2.596;2023-01-24T16:33:25;6.47;;;2.13;;
74808;SDS011;63338;39.544;2.596;2023-01-24T16:35:55;6.43;;;2.10;;
74808;SDS011;63338;39.544;2.596;2023-01-24T16:38:24;6.15;;;1.70;;
74808;SDS011;63338;39.544;2.596;2023-01-24T16:40:50;8.73;;;1.83;;
74808;SDS011;63338;39.544;2.596;2023-01-24T16:43:20;8.18;;;1.70;;
74808;SDS011;63338;39.544;2.596;2023-01-24T16:45:48;4.47;;;1.65;;
74808;SDS011;63338;39.544;2.596;2023-01-24T16:48:16;11.35;;;4.85;;
74808;SDS011;63338;39.544;2.596;2023-01-24T16:50:43;9.45;;;3.88;;
74808;SDS011;63338;39.544;2.596;2023-01-24T16:53:11;6.22;;;2.08;;
74808;SDS011;63338;39.544;2.596;2023-01-24T16:55:38;5.97;;;2.55;;
74808;SDS011;63338;39.544;2.596;2023-01-24T16:58:08;8.38;;;2.35;;
74808;SDS011;63338;39.544;2.596;2023-01-24T17:00:35;5.03;;;1.92;;
74808;SDS011;63338;39.544;2.596;2023-01-24T17:03:02;7.65;;;2.20;;
74808;SDS011;63338;39.544;2.596;2023-01-24T17:05:29;8.82;;;2.80;;
74808;SDS011;63338;39.544;2.596;2023-01-24T17:07:56;5.10;;;1.88;;
74808;SDS011;63338;39.544;2.596;2023-01-24T17:10:23;7.22;;;1.98;;
74808;SDS011;63338;39.544;2.596;2023-01-24T17:12:51;4.57;;;1.98;;
74808;SDS011;63338;39.544;2.596;2023-01-24T17:15:19;7.88;;;2.50;;
74808;SDS011;63338;39.544;2.596;2023-01-24T17:17:45;8.98;;;2.25;;
74808;SDS011;63338;39.544;2.596;2023-01-24T17:20:11;6.97;;;2.08;;
74808;SDS011;63338;39.544;2.596;2023-01-24T17:22:38;8.20;;;2.47;;
74808;SDS011;63338;39.544;2.596;2023-01-24T17:25:04;9.23;;;2.85;;